sensor_id;sensor_type;location;lat;lon;timestamp;P1;durP1;ratioP1;P2;durP2;ratioP2
35803;SDS011;21924;51.934;7.414;2022-11-27T00:00:20;27.90;;;8.75;;
35803;SDS011;21924;51.934;7.414;2022-11-27T00:03:05;24.37;;;8.60;;
35803;SDS011;21924;51.934;7.414;2022-11-27T00:05:50;26.77;;;9.05;;
35803;SDS011;21924;51.934;7.414;2022-11-27T00:08:41;25.83;;;8.87;;
35803;SDS011;21924;51.934;7.414;2022-11-27T00:11:28;29.75;;;7.53;;
35803;SDS011;21924;51.934;7.414;2022-11-27T00:14:14;17.10;;;8.65;;
35803;SDS011;21924;51.934;7.414;2022-11-27T00:16:59;19.92;;;8.88;;
35803;SDS011;21924;51.934;7.414;2022-11-27T00:19:43;16.63;;;7.90;;
35803;SDS011;21924;51.934;7.414;2022-11-27T00:22:27;26.63;;;9.00;;
35803;SDS011;21924;51.934;7.414;2022-11-27T00:25:11;24.10;;;8.93;;
35803;SDS011;21924;51.934;7.414;2022-11-27T00:27:56;22.67;;;8.47;;
35803;SDS011;21924;51.934;7.414;2022-11-27T00:30:40;29.07;;;8.80;;
35803;SDS011;21924;51.934;7.414;2022-11-27T00:33:24;23.27;;;9.10;;
35803;SDS011;21924;51.934;7.414;2022-11-27T00:36:09;25.23;;;7.67;;
35803;SDS011;21924;51.934;7.414;2022-11-27T00:38:54;19.70;;;8.67;;
35803;SDS011;21924;51.934;7.414;2022-11-27T00:41:39;23.37;;;8.20;;
35803;SDS011;21924;51.934;7.414;2022-11-27T00:44:23;28.03;;;9.20;;
35803;SDS011;21924;51.934;7.414;2022-11-27T00:47:07;29.47;;;9.37;;
35803;SDS011;21924;51.934;7.414;2022-11-27T00:49:52;18.63;;;8.57;;
35803;SDS011;21924;51.934;7.414;2022-11-27T00:52:36;14.33;;;8.33;;
35803;SDS011;21924;51.934;7.414;2022-11-27T00:55:20;31.03;;;9.97;;
35803;SDS011;21924;51.934;7.414;2022-11-27T00:58:04;27.87;;;9.57;;
35803;SDS011;21924;51.934;7.414;2022-11-27T01:00:59;23.13;;;9.53;;
35803;SDS011;21924;51.934;7.414;2022-11-27T01:03:45;31.10;;;9.48;;
35803;SDS011;21924;51.934;7.414;2022-11-27T01:06:29;25.40;;;9.73;;
35803;SDS011;21924;51.934;7.414;2022-11-27T01:09:14;24.43;;;8.13;;
35803;SDS011;21924;51.934;7.414;2022-11-27T01:11:59;34.00;;;8.20;;
35803;SDS011;21924;51.934;7.414;2022-11-27T01:14:43;18.77;;;8.00;;
35803;SDS011;21924;51.934;7.414;2022-11-27T01:17:27;22.73;;;8.17;;
35803;SDS011;21924;51.934;7.414;2022-11-27T01:20:12;17.20;;;7.73;;
35803;SDS011;21924;51.934;7.414;2022-11-27T01:22:56;22.87;;;9.07;;
35803;SDS011;21924;51.934;7.414;2022-11-27T01:25:40;19.03;;;7.57;;
35803;SDS011;21924;51.934;7.414;2022-11-27T01:28:24;18.10;;;7.83;;
35803;SDS011;21924;51.934;7.414;2022-11-27T01:31:13;21.17;;;7.73;;
35803;SDS011;21924;51.934;7.414;2022-11-27T01:34:02;23.20;;;8.37;;
35803;SDS011;21924;51.934;7.414;2022-11-27T01:36:47;25.07;;;7.70;;
35803;SDS011;21924;51.934;7.414;2022-11-27T01:39:32;16.07;;;7.83;;
35803;SDS011;21924;51.934;7.414;2022-11-27T01:42:16;14.17;;;8.63;;
35803;SDS011;21924;51.934;7.414;2022-11-27T01:45:01;17.93;;;7.77;;
35803;SDS011;21924;51.934;7.414;2022-11-27T01:47:48;20.63;;;8.30;;
35803;SDS011;21924;51.934;7.414;2022-11-27T01:50:37;24.53;;;8.87;;
35803;SDS011;21924;51.934;7.414;2022-11-27T01:53:23;18.37;;;8.40;;
35803;SDS011;21924;51.934;7.414;2022-11-27T01:56:07;16.37;;;6.93;;
35803;SDS011;21924;51.934;7.414;2022-11-27T01:58:52;21.57;;;7.47;;
35803;SDS011;21924;51.934;7.414;2022-11-27T02:01:38;13.35;;;7.63;;
35803;SDS011;21924;51.934;7.414;2022-11-27T02:04:22;14.93;;;7.90;;
35803;SDS011;21924;51.934;7.414;2022-11-27T02:07:06;10.73;;;7.73;;
35803;SDS011;21924;51.934;7.414;2022-11-27T02:09:51;17.23;;;7.47;;
35803;SDS011;21924;51.934;7.414;2022-11-27T02:12:39;22.33;;;7.77;;
35803;SDS011;21924;51.934;7.414;2022-11-27T02:15:43;22.10;;;8.00;;
35803;SDS011;21924;51.934;7.414;2022-11-27T02:18:43;18.17;;;8.87;;
35803;SDS011;21924;51.934;7.414;2022-11-27T02:21:58;20.83;;;8.43;;
35803;SDS011;21924;51.934;7.414;2022-11-27T02:24:49;15.30;;;8.20;;
35803;SDS011;21924;51.934;7.414;2022-11-27T02:28:03;27.83;;;7.90;;
35803;SDS011;21924;51.934;7.414;2022-11-27T02:31:06;30.40;;;9.05;;
35803;SDS011;21924;51.934;7.414;2022-11-27T02:33:53;19.60;;;8.73;;
35803;SDS011;21924;51.934;7.414;2022-11-27T02:36:42;18.83;;;8.70;;
35803;SDS011;21924;51.934;7.414;2022-11-27T02:39:34;14.27;;;6.97;;
35803;SDS011;21924;51.934;7.414;2022-11-27T02:42:25;19.03;;;8.57;;
35803;SDS011;21924;51.934;7.414;2022-11-27T02:45:16;15.23;;;7.37;;
35803;SDS011;21924;51.934;7.414;2022-11-27T02:48:05;19.47;;;8.53;;
35803;SDS011;21924;51.934;7.414;2022-11-27T02:50:51;18.20;;;7.70;;
35803;SDS011;21924;51.934;7.414;2022-11-27T02:53:40;15.43;;;7.78;;
35803;SDS011;21924;51.934;7.414;2022-11-27T02:56:28;14.80;;;7.67;;
35803;SDS011;21924;51.934;7.414;2022-11-27T02:59:15;31.27;;;9.00;;
35803;SDS011;21924;51.934;7.414;2022-11-27T03:02:07;16.43;;;8.17;;
35803;SDS011;21924;51.934;7.414;2022-11-27T03:04:57;18.60;;;9.07;;
35803;SDS011;21924;51.934;7.414;2022-11-27T03:07:50;18.63;;;8.30;;
35803;SDS011;21924;51.934;7.414;2022-11-27T03:10:43;19.17;;;8.23;;
35803;SDS011;21924;51.934;7.414;2022-11-27T03:13:33;20.30;;;9.03;;
35803;SDS011;21924;51.934;7.414;2022-11-27T03:16:44;16.50;;;8.23;;
35803;SDS011;21924;51.934;7.414;2022-11-27T03:19:55;15.53;;;8.80;;
35803;SDS011;21924;51.934;7.414;2022-11-27T03:22:53;24.67;;;8.13;;
35803;SDS011;21924;51.934;7.414;2022-11-27T03:25:38;25.70;;;8.30;;
35803;SDS011;21924;51.934;7.414;2022-11-27T03:28:22;14.53;;;9.20;;
35803;SDS011;21924;51.934;7.414;2022-11-27T03:31:07;17.17;;;8.67;;
35803;SDS011;21924;51.934;7.414;2022-11-27T03:33:52;16.97;;;7.97;;
35803;SDS011;21924;51.934;7.414;2022-11-27T03:36:36;15.50;;;7.93;;
35803;SDS011;21924;51.934;7.414;2022-11-27T03:39:21;26.13;;;8.83;;
35803;SDS011;21924;51.934;7.414;2022-11-27T03:51:40;18.47;;;9.23;;
35803;SDS011;21924;51.934;7.414;2022-11-27T03:54:36;16.67;;;8.43;;
35803;SDS011;21924;51.934;7.414;2022-11-27T03:57:36;15.80;;;8.47;;
35803;SDS011;21924;51.934;7.414;2022-11-27T04:00:38;21.17;;;8.73;;
35803;SDS011;21924;51.934;7.414;2022-11-27T04:03:26;22.03;;;10.10;;
35803;SDS011;21924;51.934;7.414;2022-11-27T04:06:12;15.85;;;8.73;;
35803;SDS011;21924;51.934;7.414;2022-11-27T04:08:56;17.10;;;8.77;;
35803;SDS011;21924;51.934;7.414;2022-11-27T04:11:40;20.80;;;8.40;;
35803;SDS011;21924;51.934;7.414;2022-11-27T04:14:25;27.10;;;9.13;;
35803;SDS011;21924;51.934;7.414;2022-11-27T04:17:09;23.77;;;9.07;;
35803;SDS011;21924;51.934;7.414;2022-11-27T04:19:53;23.70;;;8.50;;
35803;SDS011;21924;51.934;7.414;2022-11-27T04:22:38;24.20;;;9.37;;
35803;SDS011;21924;51.934;7.414;2022-11-27T04:25:22;17.63;;;8.63;;
35803;SDS011;21924;51.934;7.414;2022-11-27T04:28:06;23.27;;;9.07;;
35803;SDS011;21924;51.934;7.414;2022-11-27T04:30:51;18.20;;;8.20;;
35803;SDS011;21924;51.934;7.414;2022-11-27T04:33:36;14.23;;;8.20;;
35803;SDS011;21924;51.934;7.414;2022-11-27T04:36:20;18.63;;;9.53;;
35803;SDS011;21924;51.934;7.414;2022-11-27T04:39:04;20.53;;;8.63;;
35803;SDS011;21924;51.934;7.414;2022-11-27T04:41:49;17.70;;;8.57;;
35803;SDS011;21924;51.934;7.414;2022-11-27T04:44:33;25.23;;;9.40;;
35803;SDS011;21924;51.934;7.414;2022-11-27T04:47:17;24.20;;;9.03;;
35803;SDS011;21924;51.934;7.414;2022-11-27T04:50:02;20.73;;;9.60;;
35803;SDS011;21924;51.934;7.414;2022-11-27T04:52:46;20.57;;;10.17;;
35803;SDS011;21924;51.934;7.414;2022-11-27T04:55:31;18.40;;;9.77;;
35803;SDS011;21924;51.934;7.414;2022-11-27T04:58:15;26.33;;;10.83;;
35803;SDS011;21924;51.934;7.414;2022-11-27T05:00:59;25.57;;;9.53;;
35803;SDS011;21924;51.934;7.414;2022-11-27T05:03:45;22.63;;;9.37;;
35803;SDS011;21924;51.934;7.414;2022-11-27T05:06:30;22.17;;;10.83;;
35803;SDS011;21924;51.934;7.414;2022-11-27T05:09:15;30.13;;;11.13;;
35803;SDS011;21924;51.934;7.414;2022-11-27T05:12:00;16.88;;;10.57;;
35803;SDS011;21924;51.934;7.414;2022-11-27T05:14:44;23.93;;;9.77;;
35803;SDS011;21924;51.934;7.414;2022-11-27T05:17:29;22.13;;;9.87;;
35803;SDS011;21924;51.934;7.414;2022-11-27T05:20:12;21.00;;;9.27;;
35803;SDS011;21924;51.934;7.414;2022-11-27T05:22:57;23.60;;;8.50;;
35803;SDS011;21924;51.934;7.414;2022-11-27T05:25:41;19.77;;;10.07;;
35803;SDS011;21924;51.934;7.414;2022-11-27T05:28:25;20.73;;;9.93;;
35803;SDS011;21924;51.934;7.414;2022-11-27T05:31:10;18.17;;;8.43;;
35803;SDS011;21924;51.934;7.414;2022-11-27T05:33:54;19.03;;;9.70;;
35803;SDS011;21924;51.934;7.414;2022-11-27T05:36:38;14.73;;;8.97;;
35803;SDS011;21924;51.934;7.414;2022-11-27T05:39:23;24.90;;;8.93;;
35803;SDS011;21924;51.934;7.414;2022-11-27T05:42:07;18.23;;;9.53;;
35803;SDS011;21924;51.934;7.414;2022-11-27T05:44:52;16.23;;;9.50;;
35803;SDS011;21924;51.934;7.414;2022-11-27T05:47:36;18.33;;;8.60;;
35803;SDS011;21924;51.934;7.414;2022-11-27T05:50:20;19.97;;;8.97;;
35803;SDS011;21924;51.934;7.414;2022-11-27T05:53:04;19.80;;;8.87;;
35803;SDS011;21924;51.934;7.414;2022-11-27T05:55:49;17.20;;;8.80;;
35803;SDS011;21924;51.934;7.414;2022-11-27T05:58:33;22.03;;;10.20;;
35803;SDS011;21924;51.934;7.414;2022-11-27T06:01:18;29.03;;;12.03;;
35803;SDS011;21924;51.934;7.414;2022-11-27T06:04:03;16.00;;;8.17;;
35803;SDS011;21924;51.934;7.414;2022-11-27T06:06:47;14.07;;;8.07;;
35803;SDS011;21924;51.934;7.414;2022-11-27T06:09:32;22.83;;;9.80;;
35803;SDS011;21924;51.934;7.414;2022-11-27T06:12:16;21.23;;;8.87;;
35803;SDS011;21924;51.934;7.414;2022-11-27T06:15:00;18.77;;;8.90;;
35803;SDS011;21924;51.934;7.414;2022-11-27T06:17:44;14.73;;;9.40;;
35803;SDS011;21924;51.934;7.414;2022-11-27T06:20:31;23.03;;;8.37;;
35803;SDS011;21924;51.934;7.414;2022-11-27T06:23:15;18.30;;;8.57;;
35803;SDS011;21924;51.934;7.414;2022-11-27T06:26:10;25.43;;;11.20;;
35803;SDS011;21924;51.934;7.414;2022-11-27T06:28:55;21.80;;;9.27;;
35803;SDS011;21924;51.934;7.414;2022-11-27T06:31:41;17.13;;;7.93;;
35803;SDS011;21924;51.934;7.414;2022-11-27T06:34:25;17.10;;;8.23;;
35803;SDS011;21924;51.934;7.414;2022-11-27T06:37:09;13.50;;;8.07;;
35803;SDS011;21924;51.934;7.414;2022-11-27T06:39:53;20.50;;;9.13;;
35803;SDS011;21924;51.934;7.414;2022-11-27T06:42:38;16.53;;;8.23;;
35803;SDS011;21924;51.934;7.414;2022-11-27T06:45:22;15.77;;;8.40;;
35803;SDS011;21924;51.934;7.414;2022-11-27T06:48:06;17.07;;;8.47;;
35803;SDS011;21924;51.934;7.414;2022-11-27T06:50:50;16.53;;;8.50;;
35803;SDS011;21924;51.934;7.414;2022-11-27T06:53:35;25.77;;;9.17;;
35803;SDS011;21924;51.934;7.414;2022-11-27T06:56:21;11.57;;;7.30;;
35803;SDS011;21924;51.934;7.414;2022-11-27T06:59:06;20.92;;;9.57;;
35803;SDS011;21924;51.934;7.414;2022-11-27T07:01:50;22.53;;;9.23;;
35803;SDS011;21924;51.934;7.414;2022-11-27T07:04:35;17.77;;;9.53;;
35803;SDS011;21924;51.934;7.414;2022-11-27T07:07:19;18.17;;;9.30;;
35803;SDS011;21924;51.934;7.414;2022-11-27T07:10:03;13.27;;;8.63;;
35803;SDS011;21924;51.934;7.414;2022-11-27T07:12:48;17.77;;;8.27;;
35803;SDS011;21924;51.934;7.414;2022-11-27T07:15:32;18.53;;;9.10;;
35803;SDS011;21924;51.934;7.414;2022-11-27T07:18:17;14.03;;;9.03;;
35803;SDS011;21924;51.934;7.414;2022-11-27T07:21:01;19.40;;;7.93;;
35803;SDS011;21924;51.934;7.414;2022-11-27T07:23:46;23.03;;;8.47;;
35803;SDS011;21924;51.934;7.414;2022-11-27T07:26:30;15.70;;;7.87;;
35803;SDS011;21924;51.934;7.414;2022-11-27T07:29:14;22.47;;;9.33;;
35803;SDS011;21924;51.934;7.414;2022-11-27T07:31:58;15.17;;;8.10;;
35803;SDS011;21924;51.934;7.414;2022-11-27T07:34:42;18.03;;;8.50;;
35803;SDS011;21924;51.934;7.414;2022-11-27T07:37:29;18.00;;;8.27;;
35803;SDS011;21924;51.934;7.414;2022-11-27T07:40:14;15.50;;;7.60;;
35803;SDS011;21924;51.934;7.414;2022-11-27T07:43:00;21.08;;;8.65;;
35803;SDS011;21924;51.934;7.414;2022-11-27T07:45:45;19.07;;;8.53;;
35803;SDS011;21924;51.934;7.414;2022-11-27T07:48:29;16.97;;;8.60;;
35803;SDS011;21924;51.934;7.414;2022-11-27T07:51:14;15.60;;;7.53;;
35803;SDS011;21924;51.934;7.414;2022-11-27T07:54:00;14.90;;;8.17;;
35803;SDS011;21924;51.934;7.414;2022-11-27T07:56:45;12.47;;;8.27;;
35803;SDS011;21924;51.934;7.414;2022-11-27T07:59:29;17.50;;;8.47;;
35803;SDS011;21924;51.934;7.414;2022-11-27T08:02:13;20.80;;;8.90;;
35803;SDS011;21924;51.934;7.414;2022-11-27T08:04:58;11.87;;;7.70;;
35803;SDS011;21924;51.934;7.414;2022-11-27T08:07:42;13.63;;;7.30;;
35803;SDS011;21924;51.934;7.414;2022-11-27T08:10:26;13.03;;;7.83;;
35803;SDS011;21924;51.934;7.414;2022-11-27T08:13:11;23.40;;;8.73;;
35803;SDS011;21924;51.934;7.414;2022-11-27T08:15:57;13.20;;;6.80;;
35803;SDS011;21924;51.934;7.414;2022-11-27T08:18:42;16.83;;;8.53;;
35803;SDS011;21924;51.934;7.414;2022-11-27T08:21:26;16.77;;;7.63;;
35803;SDS011;21924;51.934;7.414;2022-11-27T08:24:12;14.50;;;8.45;;
35803;SDS011;21924;51.934;7.414;2022-11-27T08:26:56;14.43;;;7.43;;
35803;SDS011;21924;51.934;7.414;2022-11-27T08:29:40;12.70;;;8.27;;
35803;SDS011;21924;51.934;7.414;2022-11-27T08:32:25;21.10;;;8.60;;
35803;SDS011;21924;51.934;7.414;2022-11-27T08:35:09;22.77;;;9.00;;
35803;SDS011;21924;51.934;7.414;2022-11-27T08:37:55;12.77;;;7.37;;
35803;SDS011;21924;51.934;7.414;2022-11-27T08:40:39;15.67;;;8.10;;
35803;SDS011;21924;51.934;7.414;2022-11-27T08:43:23;17.07;;;8.47;;
35803;SDS011;21924;51.934;7.414;2022-11-27T08:46:07;15.37;;;7.90;;
35803;SDS011;21924;51.934;7.414;2022-11-27T08:48:52;12.80;;;7.40;;
35803;SDS011;21924;51.934;7.414;2022-11-27T08:51:37;18.10;;;7.82;;
35803;SDS011;21924;51.934;7.414;2022-11-27T08:54:21;16.52;;;7.63;;
35803;SDS011;21924;51.934;7.414;2022-11-27T08:57:05;14.17;;;7.33;;
35803;SDS011;21924;51.934;7.414;2022-11-27T08:59:49;18.47;;;8.23;;
35803;SDS011;21924;51.934;7.414;2022-11-27T09:02:34;13.80;;;7.75;;
35803;SDS011;21924;51.934;7.414;2022-11-27T09:05:18;14.45;;;7.82;;
35803;SDS011;21924;51.934;7.414;2022-11-27T09:08:02;16.52;;;7.03;;
35803;SDS011;21924;51.934;7.414;2022-11-27T09:10:48;15.10;;;7.93;;
35803;SDS011;21924;51.934;7.414;2022-11-27T09:13:32;15.27;;;7.17;;
35803;SDS011;21924;51.934;7.414;2022-11-27T09:16:20;13.27;;;8.15;;
35803;SDS011;21924;51.934;7.414;2022-11-27T09:19:05;21.30;;;7.53;;
35803;SDS011;21924;51.934;7.414;2022-11-27T09:21:49;16.92;;;9.18;;
35803;SDS011;21924;51.934;7.414;2022-11-27T09:24:34;15.27;;;8.60;;
35803;SDS011;21924;51.934;7.414;2022-11-27T09:27:19;21.20;;;7.63;;
35803;SDS011;21924;51.934;7.414;2022-11-27T09:30:04;11.73;;;7.80;;
35803;SDS011;21924;51.934;7.414;2022-11-27T09:35:38;13.68;;;7.50;;
35803;SDS011;21924;51.934;7.414;2022-11-27T09:38:23;15.02;;;7.38;;
35803;SDS011;21924;51.934;7.414;2022-11-27T09:44:02;17.88;;;8.70;;
35803;SDS011;21924;51.934;7.414;2022-11-27T09:46:50;15.50;;;8.30;;
35803;SDS011;21924;51.934;7.414;2022-11-27T09:50:23;16.02;;;7.57;;
35803;SDS011;21924;51.934;7.414;2022-11-27T09:55:55;18.02;;;7.53;;
35803;SDS011;21924;51.934;7.414;2022-11-27T09:58:42;16.55;;;8.57;;
35803;SDS011;21924;51.934;7.414;2022-11-27T10:01:38;12.98;;;7.80;;
35803;SDS011;21924;51.934;7.414;2022-11-27T10:04:22;24.08;;;7.82;;
35803;SDS011;21924;51.934;7.414;2022-11-27T10:07:13;32.53;;;8.32;;
35803;SDS011;21924;51.934;7.414;2022-11-27T10:10:19;14.93;;;8.10;;
35803;SDS011;21924;51.934;7.414;2022-11-27T10:19:26;18.63;;;9.52;;
35803;SDS011;21924;51.934;7.414;2022-11-27T10:22:26;20.50;;;10.65;;
35803;SDS011;21924;51.934;7.414;2022-11-27T10:25:17;24.00;;;9.75;;
35803;SDS011;21924;51.934;7.414;2022-11-27T10:28:38;22.17;;;9.82;;
35803;SDS011;21924;51.934;7.414;2022-11-27T10:31:36;26.42;;;9.27;;
35803;SDS011;21924;51.934;7.414;2022-11-27T10:37:51;22.48;;;9.63;;
35803;SDS011;21924;51.934;7.414;2022-11-27T10:41:13;19.77;;;8.90;;
35803;SDS011;21924;51.934;7.414;2022-11-27T10:43:59;18.63;;;9.18;;
35803;SDS011;21924;51.934;7.414;2022-11-27T10:47:01;21.63;;;8.32;;
35803;SDS011;21924;51.934;7.414;2022-11-27T10:49:48;16.27;;;8.57;;
35803;SDS011;21924;51.934;7.414;2022-11-27T10:52:32;16.58;;;8.48;;
35803;SDS011;21924;51.934;7.414;2022-11-27T10:55:18;19.65;;;8.02;;
35803;SDS011;21924;51.934;7.414;2022-11-27T11:01:25;15.32;;;8.02;;
35803;SDS011;21924;51.934;7.414;2022-11-27T11:04:12;16.13;;;7.88;;
35803;SDS011;21924;51.934;7.414;2022-11-27T11:06:58;16.15;;;7.43;;
35803;SDS011;21924;51.934;7.414;2022-11-27T11:09:44;18.83;;;7.97;;
35803;SDS011;21924;51.934;7.414;2022-11-27T11:12:30;16.65;;;7.70;;
35803;SDS011;21924;51.934;7.414;2022-11-27T11:15:15;13.20;;;8.18;;
35803;SDS011;21924;51.934;7.414;2022-11-27T11:18:00;12.57;;;7.22;;
35803;SDS011;21924;51.934;7.414;2022-11-27T11:20:51;19.00;;;8.15;;
35803;SDS011;21924;51.934;7.414;2022-11-27T11:23:38;19.60;;;8.48;;
35803;SDS011;21924;51.934;7.414;2022-11-27T11:26:25;15.53;;;8.17;;
35803;SDS011;21924;51.934;7.414;2022-11-27T11:35:26;15.65;;;8.35;;
35803;SDS011;21924;51.934;7.414;2022-11-27T11:38:17;20.70;;;9.38;;
35803;SDS011;21924;51.934;7.414;2022-11-27T11:41:09;28.90;;;9.02;;
35803;SDS011;21924;51.934;7.414;2022-11-27T11:43:57;20.30;;;9.48;;
35803;SDS011;21924;51.934;7.414;2022-11-27T11:46:49;19.02;;;9.55;;
35803;SDS011;21924;51.934;7.414;2022-11-27T11:49:35;19.88;;;9.88;;
35803;SDS011;21924;51.934;7.414;2022-11-27T11:55:39;18.27;;;10.07;;
35803;SDS011;21924;51.934;7.414;2022-11-27T11:58:49;17.92;;;10.60;;
35803;SDS011;21924;51.934;7.414;2022-11-27T12:08:06;21.83;;;9.45;;
35803;SDS011;21924;51.934;7.414;2022-11-27T12:11:04;19.75;;;9.82;;
35803;SDS011;21924;51.934;7.414;2022-11-27T12:14:01;17.75;;;9.50;;
35803;SDS011;21924;51.934;7.414;2022-11-27T12:20:23;20.42;;;10.40;;
35803;SDS011;21924;51.934;7.414;2022-11-27T12:26:15;22.42;;;10.10;;
35803;SDS011;21924;51.934;7.414;2022-11-27T12:35:31;23.42;;;10.77;;
35803;SDS011;21924;51.934;7.414;2022-11-27T12:48:25;20.13;;;8.95;;
35803;SDS011;21924;51.934;7.414;2022-11-27T12:51:00;22.58;;;10.00;;
35803;SDS011;21924;51.934;7.414;2022-11-27T12:57:28;19.38;;;9.38;;
35803;SDS011;21924;51.934;7.414;2022-11-27T12:59:56;29.23;;;10.90;;
35803;SDS011;21924;51.934;7.414;2022-11-27T13:06:08;16.95;;;8.35;;
35803;SDS011;21924;51.934;7.414;2022-11-27T13:08:56;17.55;;;8.85;;
35803;SDS011;21924;51.934;7.414;2022-11-27T13:11:47;16.55;;;7.88;;
35803;SDS011;21924;51.934;7.414;2022-11-27T13:14:32;20.75;;;9.98;;
35803;SDS011;21924;51.934;7.414;2022-11-27T13:17:20;15.23;;;8.82;;
35803;SDS011;21924;51.934;7.414;2022-11-27T13:20:13;19.77;;;8.70;;
35803;SDS011;21924;51.934;7.414;2022-11-27T13:22:59;11.57;;;7.68;;
35803;SDS011;21924;51.934;7.414;2022-11-27T13:25:44;11.68;;;7.57;;
35803;SDS011;21924;51.934;7.414;2022-11-27T13:28:36;26.77;;;12.32;;
35803;SDS011;21924;51.934;7.414;2022-11-27T13:31:27;20.10;;;9.88;;
35803;SDS011;21924;51.934;7.414;2022-11-27T13:34:16;16.38;;;7.30;;
35803;SDS011;21924;51.934;7.414;2022-11-27T13:37:06;15.10;;;8.35;;
35803;SDS011;21924;51.934;7.414;2022-11-27T13:39:57;18.58;;;9.13;;
35803;SDS011;21924;51.934;7.414;2022-11-27T13:43:04;16.42;;;9.00;;
35803;SDS011;21924;51.934;7.414;2022-11-27T13:46:04;18.13;;;9.80;;
35803;SDS011;21924;51.934;7.414;2022-11-27T13:48:53;16.48;;;10.13;;
35803;SDS011;21924;51.934;7.414;2022-11-27T13:51:46;20.45;;;10.13;;
35803;SDS011;21924;51.934;7.414;2022-11-27T13:54:30;15.32;;;9.25;;
35803;SDS011;21924;51.934;7.414;2022-11-27T13:57:14;13.07;;;7.75;;
35803;SDS011;21924;51.934;7.414;2022-11-27T14:00:07;14.30;;;8.52;;
35803;SDS011;21924;51.934;7.414;2022-11-27T14:02:55;19.58;;;9.25;;
35803;SDS011;21924;51.934;7.414;2022-11-27T14:05:42;14.60;;;8.90;;
35803;SDS011;21924;51.934;7.414;2022-11-27T14:08:31;16.42;;;9.00;;
35803;SDS011;21924;51.934;7.414;2022-11-27T14:11:26;21.90;;;10.23;;
35803;SDS011;21924;51.934;7.414;2022-11-27T14:14:20;21.33;;;14.53;;
35803;SDS011;21924;51.934;7.414;2022-11-27T14:17:20;22.02;;;12.32;;
35803;SDS011;21924;51.934;7.414;2022-11-27T14:20:25;19.27;;;11.80;;
35803;SDS011;21924;51.934;7.414;2022-11-27T14:23:13;21.90;;;10.38;;
35803;SDS011;21924;51.934;7.414;2022-11-27T14:28:55;21.27;;;12.60;;
35803;SDS011;21924;51.934;7.414;2022-11-27T14:31:41;143.98;;;41.47;;
35803;SDS011;21924;51.934;7.414;2022-11-27T14:37:20;54.13;;;22.98;;
35803;SDS011;21924;51.934;7.414;2022-11-27T14:40:13;58.38;;;23.63;;
35803;SDS011;21924;51.934;7.414;2022-11-27T14:43:18;42.20;;;20.85;;
35803;SDS011;21924;51.934;7.414;2022-11-27T14:46:11;41.65;;;17.77;;
35803;SDS011;21924;51.934;7.414;2022-11-27T14:48:58;33.55;;;16.75;;
35803;SDS011;21924;51.934;7.414;2022-11-27T14:51:43;29.67;;;14.55;;
35803;SDS011;21924;51.934;7.414;2022-11-27T14:54:28;21.70;;;13.00;;
35803;SDS011;21924;51.934;7.414;2022-11-27T14:57:17;29.05;;;12.20;;
35803;SDS011;21924;51.934;7.414;2022-11-27T15:03:06;19.98;;;11.25;;
35803;SDS011;21924;51.934;7.414;2022-11-27T15:08:44;27.67;;;14.30;;
35803;SDS011;21924;51.934;7.414;2022-11-27T15:11:30;31.27;;;14.90;;
35803;SDS011;21924;51.934;7.414;2022-11-27T15:14:15;24.23;;;13.60;;
35803;SDS011;21924;51.934;7.414;2022-11-27T15:16:59;19.98;;;10.43;;
35803;SDS011;21924;51.934;7.414;2022-11-27T15:19:44;21.05;;;11.43;;
35803;SDS011;21924;51.934;7.414;2022-11-27T15:22:28;21.15;;;13.88;;
35803;SDS011;21924;51.934;7.414;2022-11-27T15:25:31;25.60;;;12.10;;
35803;SDS011;21924;51.934;7.414;2022-11-27T15:28:25;22.55;;;12.30;;
35803;SDS011;21924;51.934;7.414;2022-11-27T15:34:32;26.58;;;12.70;;
35803;SDS011;21924;51.934;7.414;2022-11-27T15:37:21;21.98;;;11.57;;
35803;SDS011;21924;51.934;7.414;2022-11-27T15:40:16;19.05;;;12.35;;
35803;SDS011;21924;51.934;7.414;2022-11-27T15:43:14;24.38;;;13.05;;
35803;SDS011;21924;51.934;7.414;2022-11-27T15:45:58;26.13;;;13.68;;
35803;SDS011;21924;51.934;7.414;2022-11-27T15:48:47;24.50;;;14.23;;
35803;SDS011;21924;51.934;7.414;2022-11-27T15:51:32;19.55;;;11.10;;
35803;SDS011;21924;51.934;7.414;2022-11-27T15:54:16;21.02;;;11.85;;
35803;SDS011;21924;51.934;7.414;2022-11-27T15:57:00;24.42;;;13.48;;
35803;SDS011;21924;51.934;7.414;2022-11-27T15:59:45;30.10;;;13.70;;
35803;SDS011;21924;51.934;7.414;2022-11-27T16:02:29;37.60;;;15.43;;
35803;SDS011;21924;51.934;7.414;2022-11-27T16:05:13;31.98;;;15.25;;
35803;SDS011;21924;51.934;7.414;2022-11-27T16:07:57;21.73;;;12.57;;
35803;SDS011;21924;51.934;7.414;2022-11-27T16:10:42;20.60;;;12.60;;
35803;SDS011;21924;51.934;7.414;2022-11-27T16:13:26;19.70;;;10.45;;
35803;SDS011;21924;51.934;7.414;2022-11-27T16:16:10;20.13;;;10.95;;
35803;SDS011;21924;51.934;7.414;2022-11-27T16:18:55;17.95;;;10.35;;
35803;SDS011;21924;51.934;7.414;2022-11-27T16:21:42;19.23;;;9.70;;
35803;SDS011;21924;51.934;7.414;2022-11-27T16:24:26;18.95;;;9.10;;
35803;SDS011;21924;51.934;7.414;2022-11-27T16:27:10;20.02;;;9.52;;
35803;SDS011;21924;51.934;7.414;2022-11-27T16:29:54;23.92;;;9.38;;
35803;SDS011;21924;51.934;7.414;2022-11-27T16:32:39;18.50;;;8.43;;
35803;SDS011;21924;51.934;7.414;2022-11-27T16:35:24;12.90;;;8.80;;
35803;SDS011;21924;51.934;7.414;2022-11-27T16:38:08;15.35;;;7.72;;
35803;SDS011;21924;51.934;7.414;2022-11-27T16:40:57;13.70;;;7.13;;
35803;SDS011;21924;51.934;7.414;2022-11-27T16:43:44;19.20;;;7.90;;
35803;SDS011;21924;51.934;7.414;2022-11-27T16:46:29;16.00;;;8.43;;
35803;SDS011;21924;51.934;7.414;2022-11-27T16:49:13;22.73;;;8.98;;
35803;SDS011;21924;51.934;7.414;2022-11-27T16:51:58;15.40;;;9.20;;
35803;SDS011;21924;51.934;7.414;2022-11-27T16:54:42;18.45;;;7.78;;
35803;SDS011;21924;51.934;7.414;2022-11-27T16:57:26;11.35;;;7.50;;
35803;SDS011;21924;51.934;7.414;2022-11-27T17:00:10;15.35;;;7.43;;
35803;SDS011;21924;51.934;7.414;2022-11-27T17:02:55;10.23;;;6.95;;
35803;SDS011;21924;51.934;7.414;2022-11-27T17:05:40;11.50;;;7.78;;
35803;SDS011;21924;51.934;7.414;2022-11-27T17:08:24;16.40;;;7.50;;
35803;SDS011;21924;51.934;7.414;2022-11-27T17:11:09;14.70;;;6.85;;
35803;SDS011;21924;51.934;7.414;2022-11-27T17:13:56;11.25;;;6.68;;
35803;SDS011;21924;51.934;7.414;2022-11-27T17:16:41;12.93;;;7.38;;
35803;SDS011;21924;51.934;7.414;2022-11-27T17:19:25;11.85;;;7.10;;
35803;SDS011;21924;51.934;7.414;2022-11-27T17:22:12;13.75;;;7.30;;
35803;SDS011;21924;51.934;7.414;2022-11-27T17:24:56;9.95;;;6.55;;
35803;SDS011;21924;51.934;7.414;2022-11-27T17:27:41;12.70;;;6.25;;
35803;SDS011;21924;51.934;7.414;2022-11-27T17:30:26;9.10;;;7.10;;
35803;SDS011;21924;51.934;7.414;2022-11-27T17:33:10;9.68;;;6.18;;
35803;SDS011;21924;51.934;7.414;2022-11-27T17:35:55;7.72;;;5.22;;
35803;SDS011;21924;51.934;7.414;2022-11-27T17:38:40;11.75;;;7.68;;
35803;SDS011;21924;51.934;7.414;2022-11-27T17:41:24;11.65;;;7.35;;
35803;SDS011;21924;51.934;7.414;2022-11-27T17:44:09;14.15;;;7.63;;
35803;SDS011;21924;51.934;7.414;2022-11-27T17:46:54;15.85;;;7.75;;
35803;SDS011;21924;51.934;7.414;2022-11-27T17:49:38;13.52;;;8.05;;
35803;SDS011;21924;51.934;7.414;2022-11-27T17:52:23;10.13;;;6.70;;
35803;SDS011;21924;51.934;7.414;2022-11-27T17:55:07;9.55;;;6.80;;
35803;SDS011;21924;51.934;7.414;2022-11-27T17:57:51;13.32;;;7.05;;
35803;SDS011;21924;51.934;7.414;2022-11-27T18:00:37;10.05;;;6.65;;
35803;SDS011;21924;51.934;7.414;2022-11-27T18:03:22;10.33;;;6.10;;